Time;durP1;ratioP1;P1;durP2;ratioP2;P2;SDS_P1;SDS_P2;PMS_P1;PMS_P2;Temp;Humidity;BMP_temperature;BMP_pressure;BME280_temperature;BME280_humidity;BME280_pressure;Samples;Min_cycle;Max_cycle;Signal;HPM_P1;HPM_P2
2022/11/01 00:01:32;;;;;;;8.10;7.30;;;12.00;99.90;;;;;;7367864;19;20448;-72
2022/11/01 00:03:58;;;;;;;10.00;7.67;;;12.10;99.90;;;;;;7369831;19;20965;-72
2022/11/01 00:06:23;;;;;;;10.63;8.23;;;12.10;99.90;;;;;;7371795;19;20317;-72
2022/11/01 00:08:49;;;;;;;12.15;8.18;;;12.10;99.90;;;;;;7371647;19;21318;-72
2022/11/01 00:11:16;;;;;;;7.97;7.17;;;12.10;99.90;;;;;;7368274;19;20349;-72
2022/11/01 00:13:48;;;;;;;10.15;7.90;;;12.10;99.90;;;;;;7378233;19;20319;-73
2022/11/01 00:16:14;;;;;;;9.60;7.95;;;12.10;99.90;;;;;;7397367;19;20328;-74
2022/11/01 01:26:41;;;;;;;15.38;12.63;;;12.30;99.90;;;;;;7364478;19;20357;-72
2022/11/01 01:29:07;;;;;;;14.32;10.30;;;12.30;99.90;;;;;;7370473;19;20334;-74
2022/11/01 01:31:32;;;;;;;17.97;11.10;;;12.30;99.90;;;;;;7352172;19;20352;-72
2022/11/01 01:33:58;;;;;;;17.23;10.80;;;12.30;99.90;;;;;;7366294;19;20960;-72
2022/11/01 01:36:23;;;;;;;12.93;10.27;;;12.30;99.90;;;;;;7369573;19;20324;-72
2022/11/01 01:38:52;;;;;;;14.23;11.10;;;12.30;99.90;;;;;;7370171;19;20336;-72
2022/11/01 01:44:41;;;;;;;14.00;11.23;;;12.30;99.90;;;;;;7369855;19;20347;-72
2022/11/01 01:47:11;;;;;;;15.55;10.98;;;12.30;99.90;;;;;;7165485;19;2005059;-72
2022/11/01 01:49:36;;;;;;;15.18;10.80;;;12.30;99.90;;;;;;7366124;19;20354;-72
2022/11/01 01:52:02;;;;;;;16.07;10.33;;;12.30;99.90;;;;;;7364993;19;20313;-72
2022/11/01 02:38:39;;;;;;;14.80;12.35;;;12.00;99.90;;;;;;7363842;19;20349;-72
2022/11/01 02:41:11;;;;;;;16.40;12.15;;;12.00;99.90;;;;;;7363433;19;20423;-72
2022/11/01 02:43:52;;;;;;;18.33;13.57;;;11.90;99.90;;;;;;7365131;19;20344;-72
2022/11/01 02:49:03;;;;;;;13.60;12.07;;;11.90;99.90;;;;;;7366831;19;20313;-72
2022/11/01 02:51:28;;;;;;;15.77;12.05;;;11.90;99.90;;;;;;7372932;19;20337;-73
2022/11/01 03:05:18;;;;;;;13.63;11.07;;;11.90;99.90;;;;;;7336327;19;20450;-71
2022/11/01 03:07:50;;;;;;;15.40;11.93;;;11.90;99.90;;;;;;7262917;19;2009081;-71
2022/11/01 03:10:16;;;;;;;15.55;12.43;;;11.90;99.90;;;;;;7362360;19;20367;-71
2022/11/01 03:12:58;;;;;;;15.15;11.18;;;11.80;99.90;;;;;;7365909;19;20365;-71
2022/11/01 03:15:27;;;;;;;16.20;11.98;;;11.80;99.90;;;;;;7365729;19;20428;-71
2022/11/01 03:17:58;;;;;;;13.02;11.60;;;11.80;99.90;;;;;;7366319;19;20350;-72
2022/11/01 03:20:46;;;;;;;16.23;12.53;;;11.80;99.90;;;;;;7377805;19;20320;-72
2022/11/01 03:34:05;;;;;;;19.10;13.13;;;11.60;99.90;;;;;;7338373;19;20340;-73
2022/11/01 03:36:33;;;;;;;13.57;11.85;;;11.50;99.90;;;;;;7364911;19;20911;-73
2022/11/01 03:39:03;;;;;;;16.75;13.68;;;11.50;99.90;;;;;;7364500;19;20428;-73
2022/11/01 03:41:34;;;;;;;15.05;12.25;;;11.50;99.90;;;;;;7362938;19;20878;-72
2022/11/01 03:44:00;;;;;;;17.15;13.30;;;11.50;99.90;;;;;;7363123;19;20413;-72
2022/11/01 03:46:26;;;;;;;17.88;14.40;;;11.50;99.90;;;;;;7364985;19;21232;-72
2022/11/01 04:21:22;;;;;;;16.65;12.52;;;11.40;99.90;;;;;;7258568;19;2004437;-72
2022/11/01 04:23:48;;;;;;;15.75;12.77;;;11.40;99.90;;;;;;7366872;19;20455;-72
2022/11/01 04:26:15;;;;;;;15.87;12.47;;;11.30;99.90;;;;;;7372499;19;20363;-72
2022/11/01 04:28:43;;;;;;;12.77;10.20;;;11.30;99.90;;;;;;7372520;19;20348;-73
2022/11/01 04:31:09;;;;;;;17.90;13.98;;;11.40;99.90;;;;;;7369061;19;20324;-72
2022/11/01 04:33:35;;;;;;;11.77;10.57;;;11.40;99.90;;;;;;7368776;19;20340;-72
2022/11/01 04:36:06;;;;;;;12.95;10.88;;;11.30;99.90;;;;;;7371587;19;20411;-72
2022/11/01 04:38:32;;;;;;;10.55;9.38;;;11.30;99.90;;;;;;7372031;19;20353;-72
2022/11/01 04:40:58;;;;;;;11.67;10.47;;;11.30;99.90;;;;;;7369525;19;20368;-71
2022/11/01 04:43:23;;;;;;;13.27;10.93;;;11.40;99.90;;;;;;7369416;19;20883;-72
2022/11/01 04:45:55;;;;;;;12.33;11.00;;;11.40;99.90;;;;;;7372177;19;20332;-73
2022/11/01 04:48:20;;;;;;;13.52;10.63;;;11.30;99.90;;;;;;7396396;19;20802;-73
2022/11/01 05:01:38;;;;;;;14.35;11.63;;;11.10;99.90;;;;;;7364170;19;20340;-71
2022/11/01 05:04:04;;;;;;;15.53;12.00;;;11.10;99.90;;;;;;7369517;19;20332;-71
2022/11/01 05:06:29;;;;;;;15.07;13.13;;;11.10;99.90;;;;;;7371382;19;20355;-71
2022/11/01 05:08:55;;;;;;;14.35;12.20;;;11.10;99.90;;;;;;7369797;19;20352;-71
2022/11/01 05:11:24;;;;;;;17.23;14.33;;;11.10;99.90;;;;;;7366384;19;20336;-71
2022/11/01 05:16:34;;;;;;;16.80;14.27;;;11.00;99.90;;;;;;7397218;19;20316;-73
2022/11/01 05:43:04;;;;;;;16.53;13.23;;;11.00;99.90;;;;;;7370110;19;20337;-73
2022/11/01 06:02:02;;;;;;;13.20;11.50;;;10.90;99.90;;;;;;7375053;19;20332;-72
2022/11/01 06:42:31;;;;;;;9.98;8.65;;;11.00;99.90;;;;;;7358779;19;20321;-70
2022/11/01 06:44:57;;;;;;;9.67;8.67;;;11.00;99.90;;;;;;7369236;19;20321;-71
2022/11/01 06:47:23;;;;;;;9.47;8.47;;;11.00;99.90;;;;;;7391030;19;20321;-71
2022/11/01 07:00:42;;;;;;;8.38;7.57;;;11.00;99.90;;;;;;7357640;19;20872;-69
2022/11/01 07:03:10;;;;;;;8.70;7.90;;;11.10;99.90;;;;;;7364360;19;20419;-69
2022/11/01 07:05:36;;;;;;;9.48;8.45;;;11.10;99.90;;;;;;7357643;19;20627;-69
2022/11/01 07:08:02;;;;;;;10.70;9.60;;;11.10;99.90;;;;;;7364885;19;20335;-69
2022/11/01 07:10:27;;;;;;;10.53;9.43;;;11.10;99.90;;;;;;7364157;19;20327;-69
2022/11/01 07:12:59;;;;;;;9.80;8.15;;;11.00;99.90;;;;;;7363410;19;20356;-69
2022/11/01 07:15:25;;;;;;;10.57;8.68;;;11.00;99.90;;;;;;7359014;19;21229;-70
2022/11/01 07:18:02;;;;;;;9.57;8.65;;;11.00;99.90;;;;;;7363691;19;20448;-70
2022/11/01 07:20:28;;;;;;;9.63;8.68;;;11.10;99.90;;;;;;7364066;19;20320;-70
2022/11/01 07:23:01;;;;;;;11.27;9.18;;;11.10;99.90;;;;;;7363515;19;20336;-70
2022/11/01 07:25:26;;;;;;;9.63;8.63;;;11.10;99.90;;;;;;7360273;19;20391;-70
2022/11/01 07:44:49;;;;;;;9.40;7.78;;;11.20;99.90;;;;;;7357920;19;20345;-81
2022/11/01 07:47:23;;;;;;;9.23;8.32;;;11.30;99.90;;;;;;7133519;19;2005901;-81
2022/11/01 07:53:49;;;;;;;8.65;7.78;;;11.40;99.90;;;;;;7421993;19;20352;-80
2022/11/01 07:56:50;;;;;;;9.18;8.00;;;11.50;99.90;;;;;;7415513;19;20356;-81
2022/11/01 07:59:15;;;;;;;7.20;6.50;;;11.60;99.90;;;;;;7397790;19;20344;-74
2022/11/01 08:01:41;;;;;;;10.50;7.43;;;11.60;99.90;;;;;;7363939;19;20353;-74
2022/11/01 08:04:07;;;;;;;9.85;7.97;;;11.70;99.90;;;;;;7367447;19;20332;-73
2022/11/01 08:06:32;;;;;;;10.50;8.07;;;11.80;99.90;;;;;;7365760;19;20829;-73
2022/11/01 08:08:58;;;;;;;7.90;7.10;;;11.70;99.90;;;;;;7366882;19;20348;-74
2022/11/01 08:11:23;;;;;;;10.18;7.72;;;11.80;99.90;;;;;;7362511;19;20360;-73
2022/11/01 08:13:49;;;;;;;8.87;7.40;;;11.80;99.90;;;;;;7365399;19;21304;-73
2022/11/01 08:16:16;;;;;;;12.55;8.48;;;11.90;99.90;;;;;;7368232;19;20356;-74
2022/11/01 08:18:42;;;;;;;9.70;7.93;;;12.00;99.90;;;;;;7367521;19;21013;-73
2022/11/01 08:21:08;;;;;;;12.63;8.07;;;12.00;99.90;;;;;;7365234;19;20320;-73
2022/11/01 08:23:34;;;;;;;8.88;7.30;;;12.10;99.90;;;;;;7367258;19;20885;-73
2022/11/01 08:25:59;;;;;;;7.97;6.90;;;12.10;99.90;;;;;;7371295;19;20672;-74
2022/11/01 08:28:27;;;;;;;9.77;8.18;;;12.20;99.90;;;;;;7371942;19;20332;-74
2022/11/01 08:30:52;;;;;;;7.57;6.72;;;12.20;99.90;;;;;;7364975;19;20356;-73
2022/11/01 08:33:18;;;;;;;8.57;7.55;;;12.30;99.90;;;;;;7367451;19;20321;-73
2022/11/01 08:35:44;;;;;;;8.23;6.97;;;12.30;99.90;;;;;;7367203;19;20352;-73
2022/11/01 08:38:09;;;;;;;7.80;7.00;;;12.40;99.90;;;;;;7368095;19;20356;-75
2022/11/01 08:40:35;;;;;;;8.65;7.07;;;12.50;99.90;;;;;;7390194;19;20637;-75
2022/11/01 08:49:10;;;;;;;7.65;6.40;;;12.70;99.90;;;;;;7370776;19;20395;-79
2022/11/01 08:51:35;;;;;;;8.70;7.18;;;12.80;99.90;;;;;;7370166;19;20344;-79
2022/11/01 08:54:01;;;;;;;9.43;6.63;;;12.80;99.90;;;;;;7368179;19;21233;-79
2022/11/01 08:56:27;;;;;;;8.88;6.70;;;12.80;99.90;;;;;;7367771;19;20315;-79
2022/11/01 08:58:53;;;;;;;6.97;6.27;;;12.80;99.90;;;;;;7368388;19;20855;-79
2022/11/01 09:01:20;;;;;;;7.82;6.40;;;12.90;99.90;;;;;;7368934;19;20316;-79
2022/11/01 09:03:46;;;;;;;9.32;7.07;;;13.00;99.90;;;;;;7368534;19;20352;-79
2022/11/01 09:06:11;;;;;;;9.15;6.30;;;13.00;99.90;;;;;;7367375;19;21219;-79
2022/11/01 09:08:37;;;;;;;7.87;6.30;;;13.10;99.90;;;;;;7367952;19;20329;-79
2022/11/01 09:11:04;;;;;;;6.82;6.13;;;13.30;99.90;;;;;;7368671;19;20313;-79
2022/11/01 09:13:30;;;;;;;6.97;6.18;;;13.40;99.90;;;;;;7368998;19;20435;-79
2022/11/01 09:15:56;;;;;;;10.32;7.35;;;13.50;99.90;;;;;;7368183;19;20407;-80
2022/11/01 09:18:21;;;;;;;8.88;6.93;;;13.60;99.90;;;;;;7368492;19;20431;-80
2022/11/01 09:20:54;;;;;;;7.67;6.70;;;13.70;99.90;;;;;;7378789;19;20328;-78
2022/11/01 09:23:19;;;;;;;6.60;5.90;;;13.80;99.90;;;;;;7374033;19;20375;-75
2022/11/01 09:25:45;;;;;;;8.68;6.32;;;13.90;99.90;;;;;;7372615;19;20332;-76
2022/11/01 09:28:10;;;;;;;6.93;5.40;;;14.00;99.90;;;;;;7372564;19;20326;-76
2022/11/01 09:30:36;;;;;;;11.17;6.80;;;14.00;99.90;;;;;;7374187;19;20347;-77
2022/11/01 09:33:04;;;;;;;6.95;5.70;;;14.20;99.90;;;;;;7370125;19;20681;-76
2022/11/01 09:35:30;;;;;;;8.68;5.95;;;14.30;99.90;;;;;;7368036;19;20336;-77
2022/11/01 09:37:56;;;;;;;8.20;6.17;;;14.30;99.90;;;;;;7372258;19;20332;-77
2022/11/01 09:40:23;;;;;;;6.93;5.43;;;14.30;99.90;;;;;;7373820;19;20348;-76
2022/11/01 09:42:48;;;;;;;6.75;5.75;;;14.40;99.90;;;;;;7371453;19;20892;-77
2022/11/01 09:45:19;;;;;;;9.87;6.17;;;14.60;99.90;;;;;;7371761;19;20333;-76
2022/11/01 09:47:47;;;;;;;7.00;5.93;;;14.70;99.90;;;;;;7371127;19;20351;-76
2022/11/01 09:50:32;;;;;;;8.73;5.57;;;14.90;99.90;;;;;;7369338;19;20880;-76
2022/11/01 09:52:59;;;;;;;7.55;5.50;;;14.90;99.90;;;;;;7369505;19;20354;-76
2022/11/01 09:55:42;;;;;;;6.50;5.60;;;15.10;99.90;;;;;;7369959;19;20332;-76
2022/11/01 09:58:29;;;;;;;8.30;5.23;;;15.10;99.90;;;;;;7371198;19;20835;-76
2022/11/01 10:00:59;;;;;;;7.38;5.38;;;15.30;99.90;;;;;;7264852;19;2004341;-76
2022/11/01 10:03:32;;;;;;;4.80;4.40;;;15.40;99.90;;;;;;7371693;19;20970;-76
2022/11/01 10:06:15;;;;;;;5.32;4.75;;;15.50;99.90;;;;;;7371504;19;20336;-76
2022/11/01 10:09:23;;;;;;;6.60;4.93;;;15.60;99.90;;;;;;7268022;19;2005044;-76
2022/11/01 10:12:05;;;;;;;7.30;4.87;;;15.80;99.90;;;;;;7266607;19;2019816;-76
2022/11/01 10:14:48;;;;;;;7.38;4.78;;;15.90;99.90;;;;;;7367408;19;20320;-78
2022/11/01 10:17:23;;;;;;;8.57;5.10;;;16.10;99.90;;;;;;7264173;19;2020201;-77
2022/11/01 10:19:49;;;;;;;7.93;4.85;;;16.20;99.90;;;;;;7369205;19;20325;-77
2022/11/01 10:22:17;;;;;;;7.97;4.53;;;16.40;99.90;;;;;;7366730;19;21365;-76
2022/11/01 10:24:53;;;;;;;7.72;4.80;;;16.50;99.90;;;;;;7368400;19;20823;-77
2022/11/01 10:27:28;;;;;;;5.80;4.32;;;16.50;99.90;;;;;;7367424;19;20349;-76
2022/11/01 10:30:14;;;;;;;7.72;4.63;;;16.50;99.90;;;;;;7366847;19;20348;-77
2022/11/01 10:32:56;;;;;;;9.57;4.60;;;16.40;99.90;;;;;;7263713;19;2004537;-76
2022/11/01 10:35:32;;;;;;;5.60;4.28;;;16.40;99.90;;;;;;7365310;19;20378;-76
2022/11/01 10:38:05;;;;;;;5.13;4.10;;;16.40;99.90;;;;;;7365920;19;20361;-76
2022/11/01 10:40:35;;;;;;;6.88;4.72;;;16.40;99.90;;;;;;7365820;19;20316;-77
2022/11/01 10:43:00;;;;;;;5.32;4.53;;;16.30;99.90;;;;;;7364917;19;20335;-77
2022/11/01 10:45:26;;;;;;;7.17;4.60;;;16.40;99.90;;;;;;7364153;19;20324;-77
2022/11/01 10:47:55;;;;;;;8.02;4.35;;;16.40;99.90;;;;;;7364770;19;20348;-77
2022/11/01 10:50:21;;;;;;;5.20;4.32;;;16.50;99.90;;;;;;7363835;19;20360;-76
2022/11/01 10:53:00;;;;;;;7.75;4.63;;;16.60;99.90;;;;;;7363259;19;20313;-76
2022/11/01 10:55:40;;;;;;;9.17;4.93;;;16.60;99.90;;;;;;7363506;19;20347;-77
2022/11/01 10:58:33;;;;;;;6.37;4.43;;;16.70;99.90;;;;;;7362795;19;20805;-77
2022/11/01 11:01:03;;;;;;;6.80;4.18;;;16.70;99.90;;;;;;7262141;19;2004567;-77
2022/11/01 11:03:29;;;;;;;7.32;4.03;;;16.90;99.90;;;;;;7367173;19;20356;-78
2022/11/01 11:05:55;;;;;;;6.78;4.60;;;17.00;99.90;;;;;;7372005;19;20360;-78
2022/11/01 11:08:22;;;;;;;6.05;4.50;;;17.00;99.90;;;;;;7369426;19;20329;-77
2022/11/01 11:10:47;;;;;;;7.75;4.93;;;17.10;99.90;;;;;;7363052;19;20321;-77
2022/11/01 11:13:14;;;;;;;6.00;4.27;;;17.20;99.90;;;;;;7363297;19;20313;-77
2022/11/01 11:16:06;;;;;;;8.73;4.37;;;17.30;99.90;;;;;;7363355;19;20885;-78
2022/11/01 11:18:37;;;;;;;7.47;4.15;;;17.40;99.90;;;;;;7364336;19;20313;-78
2022/11/01 11:21:05;;;;;;;6.35;4.30;;;17.50;99.90;;;;;;7364565;19;20325;-78
2022/11/01 11:23:32;;;;;;;6.78;4.63;;;17.50;99.90;;;;;;7363681;19;20304;-77
2022/11/01 11:26:05;;;;;;;7.93;4.40;;;17.50;99.90;;;;;;7363570;19;21186;-76
2022/11/01 11:28:32;;;;;;;6.55;4.47;;;17.50;99.90;;;;;;7363450;19;20313;-77
2022/11/01 11:31:26;;;;;;;9.23;4.15;;;17.60;99.90;;;;;;7365075;19;20341;-77
2022/11/01 11:34:17;;;;;;;4.85;4.13;;;17.70;99.90;;;;;;7268100;19;2004367;-79
2022/11/01 11:36:43;;;;;;;6.03;4.10;;;17.90;99.90;;;;;;7267429;19;2008764;-78
2022/11/01 11:39:29;;;;;;;12.27;4.35;;;18.00;99.90;;;;;;7372112;19;20332;-79
2022/11/01 11:42:31;;;;;;;5.38;4.35;;;18.00;99.90;;;;;;7269676;19;2004595;-79
2022/11/01 11:45:08;;;;;;;6.50;4.43;;;18.10;99.90;;;;;;7266824;19;2004624;-79
2022/11/01 11:47:34;;;;;;;6.30;4.20;;;18.20;99.90;;;;;;7381372;19;20315;-80
2022/11/01 11:50:19;;;;;;;5.28;4.30;;;18.20;99.90;;;;;;7376104;19;20316;-78
2022/11/01 11:52:49;;;;;;;7.75;4.20;;;18.10;99.90;;;;;;7269740;19;2004431;-78
2022/11/01 11:55:39;;;;;;;5.95;3.72;;;18.10;99.90;;;;;;7369676;19;20341;-78
2022/11/01 11:58:11;;;;;;;6.65;4.00;;;18.10;99.90;;;;;;7372023;19;20309;-78
2022/11/01 12:00:37;;;;;;;6.72;3.95;;;18.10;99.90;;;;;;7369163;19;20396;-79
2022/11/01 12:03:04;;;;;;;8.27;4.10;;;18.10;99.90;;;;;;7370282;19;20355;-78
2022/11/01 12:05:29;;;;;;;6.30;4.07;;;18.00;99.90;;;;;;7368794;19;20324;-78
2022/11/01 12:07:55;;;;;;;5.03;3.60;;;18.10;99.90;;;;;;7369296;19;20335;-78
2022/11/01 12:10:37;;;;;;;5.82;3.70;;;18.10;99.90;;;;;;7369554;19;20333;-78
2022/11/01 12:13:32;;;;;;;5.38;3.72;;;18.20;99.90;;;;;;7369609;19;20977;-78
2022/11/01 12:16:15;;;;;;;5.20;3.85;;;18.20;99.90;;;;;;7268100;19;2004436;-78
2022/11/01 12:18:48;;;;;;;4.97;3.88;;;18.20;99.90;;;;;;7266690;19;2004459;-78
2022/11/01 12:21:16;;;;;;;5.50;3.40;;;18.20;99.90;;;;;;7369864;19;20304;-77
2022/11/01 12:23:42;;;;;;;5.75;3.60;;;18.30;99.90;;;;;;7369023;19;20327;-78
2022/11/01 12:26:08;;;;;;;5.33;3.90;;;18.50;99.90;;;;;;7370909;19;20301;-79
2022/11/01 12:28:42;;;;;;;7.13;3.80;;;18.60;99.90;;;;;;7371424;19;20416;-78
2022/11/01 12:31:17;;;;;;;7.50;4.00;;;18.70;99.90;;;;;;7370373;19;20324;-79
2022/11/01 12:33:53;;;;;;;5.43;3.63;;;18.60;99.90;;;;;;7269531;19;2019276;-80
2022/11/01 12:36:27;;;;;;;6.33;3.70;;;18.60;99.90;;;;;;7370224;19;20313;-77
2022/11/01 12:39:02;;;;;;;6.97;3.47;;;18.60;99.90;;;;;;7372609;19;20550;-79
2022/11/01 12:41:42;;;;;;;5.55;3.85;;;18.60;99.90;;;;;;7379080;19;20344;-78
2022/11/01 12:44:31;;;;;;;4.72;3.30;;;18.60;99.90;;;;;;7372728;19;20949;-79
2022/11/01 12:47:01;;;;;;;5.55;3.05;;;18.60;99.90;;;;;;7267929;19;2004523;-79
2022/11/01 12:49:35;;;;;;;4.50;3.30;;;18.60;99.90;;;;;;7373242;19;21454;-80
2022/11/01 12:52:05;;;;;;;4.22;3.10;;;18.50;99.90;;;;;;7370721;19;20329;-78
2022/11/01 12:54:39;;;;;;;4.15;3.30;;;18.50;99.90;;;;;;7369719;19;20665;-79
2022/11/01 12:57:11;;;;;;;5.00;3.00;;;18.40;99.90;;;;;;7370199;19;20320;-79
2022/11/01 12:59:37;;;;;;;3.53;2.97;;;18.50;99.90;;;;;;7367805;19;20329;-81
2022/11/01 13:02:40;;;;;;;6.78;3.25;;;18.50;99.90;;;;;;7370930;19;20581;-79
2022/11/01 13:05:19;;;;;;;4.50;3.00;;;18.50;99.90;;;;;;7269943;19;2004495;-79
2022/11/01 13:08:31;;;;;;;5.05;3.03;;;18.40;99.90;;;;;;7267080;19;2004389;-79
2022/11/01 13:11:00;;;;;;;5.05;3.15;;;18.20;99.90;;;;;;7263107;19;2020029;-78
2022/11/01 13:13:45;;;;;;;4.03;3.20;;;18.20;99.90;;;;;;7367723;19;20316;-78
2022/11/01 13:16:12;;;;;;;4.77;3.03;;;18.10;99.90;;;;;;7265798;19;2019791;-79
2022/11/01 13:18:54;;;;;;;3.95;2.72;;;18.10;99.90;;;;;;7368555;19;20610;-78
2022/11/01 13:21:54;;;;;;;5.47;2.90;;;18.10;99.90;;;;;;7265356;19;2004503;-79
2022/11/01 13:24:34;;;;;;;4.70;3.05;;;18.30;99.90;;;;;;7266051;19;2004197;-79
2022/11/01 13:27:08;;;;;;;3.58;2.95;;;18.30;99.90;;;;;;7370150;19;20349;-80
2022/11/01 13:29:55;;;;;;;4.30;3.10;;;18.30;99.90;;;;;;7371010;19;20321;-81
2022/11/01 13:32:29;;;;;;;4.35;3.00;;;18.30;99.90;;;;;;7268262;19;2004344;-78
2022/11/01 13:35:30;;;;;;;4.20;3.17;;;18.30;99.90;;;;;;7366673;19;20317;-78
2022/11/01 13:38:05;;;;;;;5.57;2.75;;;18.30;99.90;;;;;;7266739;19;2004426;-78
2022/11/01 13:40:39;;;;;;;5.07;3.00;;;18.30;99.90;;;;;;7368300;19;20329;-80
2022/11/01 13:43:21;;;;;;;6.10;2.85;;;18.30;99.90;;;;;;7366435;19;20436;-78
2022/11/01 13:46:01;;;;;;;6.20;3.10;;;18.30;99.90;;;;;;7267569;19;2004331;-78
2022/11/01 13:48:39;;;;;;;4.40;3.03;;;18.30;99.90;;;;;;7366340;19;20324;-78
2022/11/01 13:51:32;;;;;;;3.97;2.83;;;18.30;99.90;;;;;;7370931;19;20301;-78
2022/11/01 13:53:59;;;;;;;4.07;3.10;;;18.20;99.90;;;;;;7264574;19;2019663;-78
2022/11/01 13:56:49;;;;;;;3.65;2.92;;;18.10;99.90;;;;;;7367011;19;20335;-79
2022/11/01 13:59:52;;;;;;;5.28;2.95;;;18.10;99.90;;;;;;7265987;19;2004308;-79
2022/11/01 14:02:24;;;;;;;6.60;2.90;;;18.10;99.90;;;;;;7267211;19;2004551;-80
2022/11/01 14:04:59;;;;;;;5.40;3.00;;;18.10;99.90;;;;;;7371909;19;20328;-81
2022/11/01 14:07:29;;;;;;;4.00;3.00;;;18.10;99.90;;;;;;7370167;19;20308;-78
2022/11/01 14:09:54;;;;;;;3.60;2.88;;;18.10;99.90;;;;;;7373330;19;20316;-81
2022/11/01 14:12:39;;;;;;;7.40;3.20;;;18.00;99.90;;;;;;7376838;19;20341;-80
2022/11/01 14:15:10;;;;;;;6.38;2.92;;;18.00;99.90;;;;;;7377293;19;20378;-78
2022/11/01 14:17:38;;;;;;;3.90;2.80;;;18.00;99.90;;;;;;7382292;19;20312;-79
2022/11/01 14:20:05;;;;;;;3.05;2.75;;;18.00;99.90;;;;;;7369377;19;20441;-79
2022/11/01 14:22:31;;;;;;;3.47;2.80;;;18.00;99.90;;;;;;7370943;19;20976;-78
2022/11/01 14:25:01;;;;;;;3.00;2.65;;;18.00;99.90;;;;;;7368184;19;20332;-80
2022/11/01 14:27:33;;;;;;;3.20;2.45;;;18.00;99.90;;;;;;7369998;19;20444;-79
2022/11/01 14:29:59;;;;;;;2.65;2.45;;;18.00;99.90;;;;;;7367407;19;20353;-80
2022/11/01 14:32:27;;;;;;;5.40;2.50;;;18.00;99.90;;;;;;7367998;19;20312;-79
2022/11/01 14:35:05;;;;;;;4.32;2.70;;;18.10;99.90;;;;;;7368120;19;20337;-78
2022/11/01 14:37:36;;;;;;;2.95;2.13;;;18.10;99.90;;;;;;7366485;19;20336;-78
2022/11/01 14:40:19;;;;;;;4.05;2.80;;;18.10;99.90;;;;;;7367238;19;20357;-78
2022/11/01 14:42:45;;;;;;;3.28;2.45;;;18.10;99.90;;;;;;7263019;19;2019898;-80
2022/11/01 14:45:31;;;;;;;5.07;2.37;;;18.10;99.90;;;;;;7366193;19;20721;-79
2022/11/01 14:47:59;;;;;;;2.97;2.17;;;18.10;99.90;;;;;;7266694;19;2004288;-80
2022/11/01 14:50:34;;;;;;;4.38;2.30;;;18.20;99.90;;;;;;7368351;19;20800;-78
2022/11/01 14:53:05;;;;;;;5.43;2.88;;;18.10;99.90;;;;;;7367719;19;20335;-79
2022/11/01 14:55:35;;;;;;;3.10;2.50;;;18.20;99.90;;;;;;7364809;19;20336;-78
2022/11/01 14:58:08;;;;;;;3.45;3.00;;;18.20;99.90;;;;;;7366344;19;20324;-79
2022/11/01 15:00:33;;;;;;;3.33;2.53;;;18.10;99.90;;;;;;7367111;19;20772;-81
2022/11/01 15:02:59;;;;;;;2.53;2.33;;;18.10;99.90;;;;;;7368970;19;20328;-78
2022/11/01 15:05:25;;;;;;;2.53;2.33;;;18.10;99.90;;;;;;7373681;19;20328;-79
2022/11/01 15:07:53;;;;;;;4.07;2.70;;;18.00;99.90;;;;;;7365089;19;20329;-78
2022/11/01 15:10:18;;;;;;;5.28;2.90;;;17.90;99.90;;;;;;7366004;19;20344;-78
2022/11/01 15:12:56;;;;;;;2.53;2.33;;;17.90;99.90;;;;;;7365034;19;20300;-79
2022/11/01 15:19:03;;;;;;;3.90;2.83;;;17.90;99.90;;;;;;7158997;19;2024328;-79
2022/11/01 15:21:29;;;;;;;3.53;3.17;;;17.70;99.90;;;;;;7363659;19;20323;-78
2022/11/01 15:23:55;;;;;;;4.03;2.87;;;17.60;99.90;;;;;;7366170;19;20661;-78
2022/11/01 15:26:23;;;;;;;5.32;2.72;;;17.50;99.90;;;;;;7365780;19;20321;-78
2022/11/01 15:28:50;;;;;;;2.55;2.35;;;17.40;99.90;;;;;;7364407;19;21226;-78
2022/11/01 15:31:15;;;;;;;4.97;2.53;;;17.30;99.90;;;;;;7364886;19;20309;-77
2022/11/01 15:33:57;;;;;;;6.28;2.40;;;17.20;99.90;;;;;;7362988;19;20329;-77
2022/11/01 15:36:27;;;;;;;2.50;2.25;;;17.10;99.90;;;;;;7362471;19;20847;-77
2022/11/01 15:38:54;;;;;;;2.25;2.05;;;17.00;99.90;;;;;;7367099;19;20399;-77
2022/11/01 15:41:22;;;;;;;3.42;2.10;;;17.00;99.90;;;;;;7369228;19;20317;-77
2022/11/01 15:43:52;;;;;;;2.93;2.40;;;17.00;99.90;;;;;;7363546;19;20328;-77
2022/11/01 15:46:17;;;;;;;2.38;2.17;;;16.90;99.90;;;;;;7361957;19;20353;-78
2022/11/01 15:48:43;;;;;;;2.93;1.80;;;16.90;99.90;;;;;;7363224;19;20308;-77
2022/11/01 15:51:16;;;;;;;2.53;2.30;;;16.90;99.90;;;;;;7370189;19;20737;-78
2022/11/01 15:53:42;;;;;;;2.53;2.13;;;16.80;99.90;;;;;;7264583;19;2004461;-78
2022/11/01 15:56:10;;;;;;;2.70;2.00;;;16.80;99.90;;;;;;7364930;19;20305;-78
2022/11/01 15:58:37;;;;;;;3.00;2.00;;;16.70;99.90;;;;;;7363885;19;20345;-78
2022/11/01 16:01:09;;;;;;;2.17;1.97;;;16.70;99.90;;;;;;7362219;19;20316;-79
2022/11/01 16:04:00;;;;;;;2.20;2.00;;;16.70;99.90;;;;;;7363718;19;20318;-78
2022/11/01 16:06:30;;;;;;;5.22;2.13;;;16.60;99.90;;;;;;7260882;19;2004262;-78
2022/11/01 16:09:07;;;;;;;2.33;1.85;;;16.60;99.90;;;;;;7363128;19;20356;-78
2022/11/01 16:11:32;;;;;;;2.30;1.85;;;16.60;99.90;;;;;;7363053;19;20317;-78
2022/11/01 16:14:22;;;;;;;2.83;1.67;;;16.60;99.90;;;;;;7362322;19;20327;-78
2022/11/01 16:17:23;;;;;;;1.95;1.73;;;16.60;99.90;;;;;;7260080;19;2004699;-79
2022/11/01 16:19:50;;;;;;;2.30;2.10;;;16.60;99.90;;;;;;7263494;19;2004491;-78
2022/11/01 16:22:44;;;;;;;2.90;2.20;;;16.60;99.90;;;;;;7350097;19;20348;-78
2022/11/01 16:25:09;;;;;;;1.70;1.60;;;16.60;99.90;;;;;;7367781;19;20305;-78
2022/11/01 16:27:58;;;;;;;2.20;1.67;;;16.60;99.90;;;;;;7372560;19;21275;-78
2022/11/01 16:30:34;;;;;;;4.28;3.25;;;16.60;99.90;;;;;;7266451;19;2004359;-78
2022/11/01 16:33:34;;;;;;;4.63;3.53;;;16.70;99.90;;;;;;7369222;19;20339;-78
2022/11/01 16:36:18;;;;;;;4.28;3.20;;;16.60;99.90;;;;;;7268531;19;2004323;-77
2022/11/01 16:38:44;;;;;;;8.43;5.10;;;16.60;99.90;;;;;;7269007;19;2004437;-77
2022/11/01 16:41:19;;;;;;;4.13;2.80;;;16.60;99.90;;;;;;7369454;19;20396;-78
2022/11/01 16:43:54;;;;;;;2.53;2.30;;;16.50;99.90;;;;;;7268186;19;2004207;-78
2022/11/01 16:46:21;;;;;;;4.05;2.03;;;16.40;99.90;;;;;;7366463;19;20320;-77
2022/11/01 16:48:54;;;;;;;3.28;2.20;;;16.40;99.90;;;;;;7367635;19;20354;-77
2022/11/01 16:51:20;;;;;;;3.17;2.13;;;16.30;99.90;;;;;;7367459;19;20312;-78
2022/11/01 16:53:46;;;;;;;2.38;1.90;;;16.20;99.90;;;;;;7368245;19;20312;-76
2022/11/01 16:56:14;;;;;;;2.27;2.07;;;16.10;99.90;;;;;;7365043;19;20352;-76
2022/11/01 16:58:40;;;;;;;2.83;1.95;;;16.10;99.90;;;;;;7368217;19;20296;-77
2022/11/01 17:01:08;;;;;;;2.67;2.00;;;16.00;99.90;;;;;;7367765;19;20318;-77
2022/11/01 17:03:33;;;;;;;3.57;2.33;;;15.90;99.90;;;;;;7365983;19;20321;-77
2022/11/01 17:06:25;;;;;;;2.10;1.90;;;15.90;99.90;;;;;;7362064;19;20423;-78
2022/11/01 17:08:51;;;;;;;2.30;1.90;;;15.90;99.90;;;;;;7266871;19;2004387;-77
2022/11/01 17:11:16;;;;;;;3.30;2.00;;;15.80;99.90;;;;;;7368301;19;20365;-77
2022/11/01 17:13:42;;;;;;;1.95;1.73;;;15.70;99.90;;;;;;7365865;19;20986;-77
2022/11/01 17:16:19;;;;;;;2.40;1.90;;;15.70;99.90;;;;;;7366364;19;20309;-77
2022/11/01 17:18:45;;;;;;;2.95;2.05;;;15.60;99.90;;;;;;7261882;19;2019831;-77
2022/11/01 17:21:10;;;;;;;2.40;1.80;;;15.60;99.90;;;;;;7367079;19;20349;-77
2022/11/01 17:23:36;;;;;;;5.30;3.53;;;15.60;99.90;;;;;;7366157;19;20394;-77
2022/11/01 17:26:02;;;;;;;5.50;2.90;;;15.50;99.90;;;;;;7370491;19;20316;-78
2022/11/01 17:28:28;;;;;;;3.03;2.30;;;15.50;99.90;;;;;;7371848;19;20345;-77
2022/11/01 17:30:53;;;;;;;2.00;1.90;;;15.50;99.90;;;;;;7366944;19;20362;-77
2022/11/01 17:33:19;;;;;;;1.87;1.70;;;15.50;99.90;;;;;;7369631;19;20330;-78
2022/11/01 17:35:47;;;;;;;1.80;1.70;;;15.50;99.90;;;;;;7365124;19;20345;-79
2022/11/01 17:38:16;;;;;;;2.63;2.25;;;15.50;99.90;;;;;;7366799;19;20312;-77
2022/11/01 17:40:44;;;;;;;5.03;3.08;;;15.50;99.90;;;;;;7366427;19;20337;-77
2022/11/01 17:43:17;;;;;;;3.58;2.80;;;15.50;99.90;;;;;;7366578;19;20368;-78
2022/11/01 17:45:43;;;;;;;3.85;3.08;;;15.50;99.90;;;;;;7266218;19;2004248;-78
2022/11/01 17:48:09;;;;;;;3.83;2.00;;;15.50;99.90;;;;;;7366622;19;21041;-79
2022/11/01 17:50:35;;;;;;;2.23;1.90;;;15.40;99.90;;;;;;7366624;19;20317;-78
2022/11/01 17:53:00;;;;;;;2.43;2.13;;;15.50;99.90;;;;;;7366008;19;20336;-78
2022/11/01 17:55:26;;;;;;;3.28;2.30;;;15.40;99.90;;;;;;7365673;19;20661;-77
2022/11/01 17:57:52;;;;;;;2.63;2.30;;;15.30;99.90;;;;;;7366826;19;20332;-79
2022/11/01 18:00:17;;;;;;;1.83;1.73;;;15.40;99.90;;;;;;7365911;19;20363;-78
2022/11/01 18:02:43;;;;;;;1.90;1.80;;;15.30;99.90;;;;;;7366809;19;20305;-78
2022/11/01 18:05:09;;;;;;;1.73;1.63;;;15.30;99.90;;;;;;7369013;19;20320;-77
2022/11/01 18:07:36;;;;;;;4.60;2.97;;;15.30;99.90;;;;;;7366330;19;20317;-78
2022/11/01 18:10:10;;;;;;;4.25;3.22;;;15.30;99.90;;;;;;7366083;19;20975;-78